Morocco, IN (47963)

12:03 PM CDT on August 31, 2015 (GMT -0500)
KINMOROC2 | | Change Station
CLOSE
Current Station
Personal Weather Station
Location: Morocco, IN
Elevation: 685 ft
Nearby Weather Stations

Elev 685 ft 41.02 °N, 87.45 °W | Updated 1 minute ago

Clear
Clear
85.7 °F
Feels Like 94 °F
N
2.0
Wind Variable Wind from SSW
Gusts 6.0 mph

Today
High -- | Low -- °F
--% Chance of Precip.
Yesterday
High -- | Low -- °F
Precip. -- in
6:15 AM 7:24 PM
Waning Gibbous, 94% visible
Pressure 30.09 in
Visibility 10.0 miles
Clouds Mostly Cloudy 2600 ft
Mostly Cloudy 3100 ft
Mostly Cloudy 3900 ft
Heat Index 94 °F
Dew Point 74 °F
Humidity 68%
Rainfall 0.00 in
Snow Depth Not available.
UV 5 out of 12
Pollen 10.30 out of 12
Air Quality Not available.
Flu Activity Not available.
METAR KRZL 311655Z AUTO 18005KT 10SM BKN026 BKN031 BKN039 28/23 A3009 RMK AO2
Pressure 30.09 in
Visibility 10.0 miles
Clouds Mostly Cloudy 2600 ft
Mostly Cloudy 3100 ft
Mostly Cloudy 3900 ft
Heat Index 94 °F
Dew Point 74 °F
Humidity 68%
Rainfall 0.00 in
Snow Depth Not available.
UV 5 out of 12
Pollen 10.30 out of 12
Air Quality Not available.
Flu Activity Not available.
METAR KRZL 311655Z AUTO 18005KT 10SM BKN026 BKN031 BKN039 28/23 A3009 RMK AO2

10-Day Weather Forecast

×

Almanac

Astronomy

Aug. 31, 2015 Rise Set
Actual Time
Civil Twilight
Nautical Twilight
Astronomical Twilight
Moon
Length of Visible Light
Length of Day
Tomorrow will be .
, % of the Moon is Illuminated

Today's Extremes

State Highs State Lows

Community

WunderPhotos

Upload Photos

1,851,320 photos uploaded!

WunderBlogs® & News

Nearby

Air Quality

  Air Quality AQ Index Pollutant
Not available.

Snow Depth

Station Depth Elevation

Earthquake Activity

City Distance Mag. Time & Date
Minimum magnitude displayed is 2.5.

Coastal Water Temperatures

Place Temperature

Stations

Nearby Weather Stations

Station Location Temp. Windchill Dew Point Humidity Wind Precip. Elev Updated Type